Time;durP1;ratioP1;P1;durP2;ratioP2;P2;SDS_P1;SDS_P2;PMS_P1;PMS_P2;Temp;Humidity;BMP_temperature;BMP_pressure;BME280_temperature;BME280_humidity;BME280_pressure;Samples;Min_cycle;Max_cycle;Signal;HPM_P1;HPM_P2
2021/06/15 00:00:55;;;;;;;7.97;4.38;;;;;;;;;;4986801;28;20050;-85
2021/06/15 00:03:22;;;;;;;5.95;4.13;;;;;;;;;;4987553;28;20055;-86
2021/06/15 00:05:48;;;;;;;7.20;4.55;;;;;;;;;;4988932;28;20073;-84
2021/06/15 00:08:15;;;;;;;6.72;4.68;;;;;;;;;;4988142;28;20106;-86
2021/06/15 00:10:43;;;;;;;7.32;4.25;;;;;;;;;;4975817;28;20054;-86
2021/06/15 00:13:10;;;;;;;5.35;3.92;;;;;;;;;;4987774;28;20105;-84
2021/06/15 00:15:37;;;;;;;9.38;4.53;;;;;;;;;;4992282;28;20055;-86
2021/06/15 00:18:06;;;;;;;9.40;4.53;;;;;;;;;;4995433;28;20129;-84
2021/06/15 00:20:32;;;;;;;7.32;3.97;;;;;;;;;;4966645;28;20090;-84
2021/06/15 00:22:59;;;;;;;6.10;4.25;;;;;;;;;;4990721;28;20056;-84
2021/06/15 00:25:26;;;;;;;8.00;4.13;;;;;;;;;;4988908;28;20050;-85
2021/06/15 00:27:52;;;;;;;5.88;4.35;;;;;;;;;;4994535;28;20535;-84
2021/06/15 00:30:21;;;;;;;6.63;4.45;;;;;;;;;;4994216;28;20064;-84
2021/06/15 00:32:50;;;;;;;6.88;5.30;;;;;;;;;;4982745;28;20137;-84
2021/06/15 00:35:18;;;;;;;6.72;4.03;;;;;;;;;;4984844;28;20121;-83
2021/06/15 00:37:45;;;;;;;8.55;4.20;;;;;;;;;;4980854;28;20077;-85
2021/06/15 00:40:12;;;;;;;8.32;4.28;;;;;;;;;;4975632;28;20061;-87
2021/06/15 00:42:39;;;;;;;5.55;3.88;;;;;;;;;;4995757;28;20050;-84
2021/06/15 00:45:07;;;;;;;7.18;4.20;;;;;;;;;;4999159;28;20069;-84
2021/06/15 00:47:34;;;;;;;5.70;4.35;;;;;;;;;;4997428;28;20042;-84
2021/06/15 00:50:01;;;;;;;6.88;4.85;;;;;;;;;;5000364;28;20057;-82
2021/06/15 00:52:29;;;;;;;6.40;4.85;;;;;;;;;;5001347;28;20061;-84
2021/06/15 00:54:58;;;;;;;6.45;4.15;;;;;;;;;;5001602;28;20529;-84
2021/06/15 00:57:26;;;;;;;5.43;3.80;;;;;;;;;;4999261;28;20055;-84
2021/06/15 00:59:53;;;;;;;7.63;4.60;;;;;;;;;;5001785;28;20042;-84
2021/06/15 01:02:19;;;;;;;8.82;4.78;;;;;;;;;;5001713;28;20057;-84
2021/06/15 01:04:46;;;;;;;10.40;4.63;;;;;;;;;;4984274;28;20056;-86
2021/06/15 01:07:18;;;;;;;5.15;3.78;;;;;;;;;;4999049;28;20057;-83
2021/06/15 01:09:51;;;;;;;7.28;4.32;;;;;;;;;;4964905;28;20109;-84
2021/06/15 01:12:27;;;;;;;10.00;4.68;;;;;;;;;;4982500;28;20472;-84
2021/06/15 01:15:04;;;;;;;5.97;4.63;;;;;;;;;;4982321;28;20149;-84
2021/06/15 01:17:36;;;;;;;6.22;4.22;;;;;;;;;;4985551;28;20068;-84
2021/06/15 01:20:17;;;;;;;7.75;4.28;;;;;;;;;;5000664;28;20053;-85
2021/06/15 01:23:19;;;;;;;7.25;4.07;;;;;;;;;;5000959;28;20054;-85
2021/06/15 01:26:04;;;;;;;5.07;3.85;;;;;;;;;;4978442;28;20057;-85
2021/06/15 01:28:36;;;;;;;4.68;3.90;;;;;;;;;;4999134;28;20053;-85
2021/06/15 01:31:12;;;;;;;8.00;4.40;;;;;;;;;;4998550;28;20057;-85
2021/06/15 01:33:42;;;;;;;6.95;4.75;;;;;;;;;;4999820;28;20050;-85
2021/06/15 01:36:09;;;;;;;6.93;4.90;;;;;;;;;;4983057;28;20053;-85
2021/06/15 01:38:41;;;;;;;6.20;4.28;;;;;;;;;;4982464;28;20062;-83
2021/06/15 01:41:10;;;;;;;8.30;4.53;;;;;;;;;;4996767;28;20507;-84
2021/06/15 01:43:40;;;;;;;7.57;4.78;;;;;;;;;;4996940;28;20049;-84
2021/06/15 01:46:08;;;;;;;6.75;4.35;;;;;;;;;;5000022;28;20057;-85
2021/06/15 01:48:39;;;;;;;5.25;4.20;;;;;;;;;;4999711;28;20069;-84
2021/06/15 01:51:06;;;;;;;6.18;4.57;;;;;;;;;;5001540;28;20069;-84
2021/06/15 01:53:34;;;;;;;6.55;4.22;;;;;;;;;;5001830;28;20062;-84
2021/06/15 01:56:04;;;;;;;7.40;4.28;;;;;;;;;;5001278;28;20050;-84
2021/06/15 01:58:33;;;;;;;6.22;4.03;;;;;;;;;;5000505;28;20417;-84
2021/06/15 02:01:02;;;;;;;7.55;5.18;;;;;;;;;;4995946;28;20818;-85
2021/06/15 02:03:29;;;;;;;6.93;4.82;;;;;;;;;;4964148;28;20138;-84
2021/06/15 02:05:58;;;;;;;7.10;4.28;;;;;;;;;;4981060;28;20050;-83
2021/06/15 02:08:28;;;;;;;5.03;4.10;;;;;;;;;;4988599;28;20046;-84
2021/06/15 02:10:56;;;;;;;7.05;4.40;;;;;;;;;;5000879;28;20054;-86
2021/06/15 02:13:23;;;;;;;5.88;3.85;;;;;;;;;;4998738;28;20050;-84
2021/06/15 02:15:50;;;;;;;7.18;4.30;;;;;;;;;;5000472;28;20047;-84
2021/06/15 02:18:21;;;;;;;5.88;4.35;;;;;;;;;;4999248;28;20046;-83
2021/06/15 02:20:49;;;;;;;6.25;4.07;;;;;;;;;;4999308;28;20058;-85
2021/06/15 02:23:19;;;;;;;6.75;4.78;;;;;;;;;;5000284;28;20050;-84
2021/06/15 02:25:46;;;;;;;7.35;4.15;;;;;;;;;;5000394;28;20057;-85
2021/06/15 02:28:13;;;;;;;5.95;4.00;;;;;;;;;;4998694;28;20053;-85
2021/06/15 02:30:40;;;;;;;6.72;4.25;;;;;;;;;;4999919;28;20411;-84
2021/06/15 02:33:09;;;;;;;6.68;4.43;;;;;;;;;;4999994;28;20047;-85
2021/06/15 02:35:41;;;;;;;7.28;4.05;;;;;;;;;;4999666;28;20046;-85
2021/06/15 02:38:11;;;;;;;7.28;4.60;;;;;;;;;;4981741;28;20046;-84
2021/06/15 02:40:39;;;;;;;6.82;4.18;;;;;;;;;;5000188;28;20050;-85
2021/06/15 02:43:07;;;;;;;7.22;4.40;;;;;;;;;;4990871;28;20445;-86
2021/06/15 02:45:35;;;;;;;8.00;4.70;;;;;;;;;;5000019;28;20406;-84
2021/06/15 02:48:05;;;;;;;5.85;4.22;;;;;;;;;;4999033;28;20055;-84
2021/06/15 02:50:32;;;;;;;7.75;4.75;;;;;;;;;;5000075;28;20054;-85
2021/06/15 02:53:04;;;;;;;5.72;3.92;;;;;;;;;;4999033;28;20487;-84
2021/06/15 02:55:34;;;;;;;5.57;4.25;;;;;;;;;;4999539;28;20077;-85
2021/06/15 02:58:01;;;;;;;7.00;4.88;;;;;;;;;;4997028;28;20112;-84
2021/06/15 03:00:28;;;;;;;6.88;4.70;;;;;;;;;;4996765;28;20045;-85
2021/06/15 03:02:55;;;;;;;6.43;4.22;;;;;;;;;;4979954;28;20496;-85
2021/06/15 03:05:21;;;;;;;7.13;4.72;;;;;;;;;;4980709;28;20049;-85
2021/06/15 03:07:48;;;;;;;5.05;3.97;;;;;;;;;;4980470;28;20049;-85
2021/06/15 03:10:18;;;;;;;8.98;4.60;;;;;;;;;;4977033;28;20050;-86
2021/06/15 03:12:49;;;;;;;9.77;4.55;;;;;;;;;;4998261;28;20522;-84
2021/06/15 03:15:19;;;;;;;6.00;4.20;;;;;;;;;;4999534;28;20042;-84
2021/06/15 03:17:52;;;;;;;6.10;4.03;;;;;;;;;;4998786;28;20034;-84
2021/06/15 03:20:22;;;;;;;5.53;4.18;;;;;;;;;;4999278;28;20153;-85
2021/06/15 03:22:51;;;;;;;6.88;4.57;;;;;;;;;;4998804;28;20056;-83
2021/06/15 03:25:22;;;;;;;6.47;4.18;;;;;;;;;;4998494;28;20054;-86
2021/06/15 03:27:53;;;;;;;7.20;4.60;;;;;;;;;;4978974;28;20506;-84
2021/06/15 03:30:21;;;;;;;8.32;4.45;;;;;;;;;;4998178;28;20108;-84
2021/06/15 03:32:51;;;;;;;6.30;4.47;;;;;;;;;;4985078;28;20101;-85
2021/06/15 03:35:18;;;;;;;5.85;3.83;;;;;;;;;;5003032;28;20074;-85
2021/06/15 03:37:51;;;;;;;6.78;4.35;;;;;;;;;;5001696;28;20054;-85
2021/06/15 03:40:20;;;;;;;6.60;4.35;;;;;;;;;;5001288;28;20434;-84
2021/06/15 03:42:46;;;;;;;11.20;4.88;;;;;;;;;;4999461;28;20051;-85
2021/06/15 03:45:14;;;;;;;6.38;4.25;;;;;;;;;;5002665;28;20043;-85
2021/06/15 03:47:42;;;;;;;5.88;4.65;;;;;;;;;;5002266;28;20045;-86
2021/06/15 03:50:10;;;;;;;6.22;4.50;;;;;;;;;;5003060;28;20046;-85
2021/06/15 03:52:38;;;;;;;7.38;4.20;;;;;;;;;;5003348;28;20108;-86
2021/06/15 03:55:08;;;;;;;8.63;4.68;;;;;;;;;;5002662;28;20105;-84
2021/06/15 03:57:41;;;;;;;6.40;4.22;;;;;;;;;;5001771;28;20050;-84
2021/06/15 04:00:08;;;;;;;8.50;4.55;;;;;;;;;;5001446;28;20062;-86
2021/06/15 04:02:38;;;;;;;6.63;4.43;;;;;;;;;;4999680;28;20073;-86
2021/06/15 04:05:07;;;;;;;6.80;4.43;;;;;;;;;;5001943;28;20054;-85
2021/06/15 04:07:33;;;;;;;5.70;4.13;;;;;;;;;;5000665;28;20546;-87
2021/06/15 04:10:02;;;;;;;6.20;3.90;;;;;;;;;;5001644;28;20047;-85
2021/06/15 04:12:29;;;;;;;6.75;4.43;;;;;;;;;;5001780;28;20057;-87
2021/06/15 04:14:58;;;;;;;6.28;4.03;;;;;;;;;;5002052;28;20046;-85
2021/06/15 04:17:27;;;;;;;6.07;3.92;;;;;;;;;;5001461;28;20054;-85
2021/06/15 04:19:55;;;;;;;6.35;3.92;;;;;;;;;;4985359;28;20046;-87
2021/06/15 04:22:23;;;;;;;6.72;3.78;;;;;;;;;;5002840;28;20057;-88
2021/06/15 04:24:53;;;;;;;7.55;4.05;;;;;;;;;;4986935;28;20047;-86
2021/06/15 04:27:21;;;;;;;7.65;4.05;;;;;;;;;;4997981;28;20043;-87
2021/06/15 04:29:48;;;;;;;7.18;4.90;;;;;;;;;;4995631;28;20057;-87
2021/06/15 04:32:20;;;;;;;4.88;3.70;;;;;;;;;;4993663;28;20051;-85
2021/06/15 04:34:50;;;;;;;6.03;3.58;;;;;;;;;;4987841;28;20043;-85
2021/06/15 04:37:17;;;;;;;5.43;3.90;;;;;;;;;;4980772;28;20077;-85
2021/06/15 04:39:58;;;;;;;5.43;4.25;;;;;;;;;;4995836;28;20081;-87
2021/06/15 04:42:31;;;;;;;5.78;3.78;;;;;;;;;;4999762;28;20562;-86
2021/06/15 04:44:58;;;;;;;7.40;3.92;;;;;;;;;;4992862;28;20076;-85
2021/06/15 04:47:29;;;;;;;8.60;3.70;;;;;;;;;;4996192;28;20089;-85
2021/06/15 04:50:00;;;;;;;6.72;4.25;;;;;;;;;;5000480;28;20491;-87
2021/06/15 04:52:28;;;;;;;9.00;4.65;;;;;;;;;;4970457;28;20043;-86
2021/06/15 04:54:55;;;;;;;9.13;4.32;;;;;;;;;;4977395;28;20771;-87
2021/06/15 04:57:27;;;;;;;6.30;4.28;;;;;;;;;;4991942;28;20266;-86
2021/06/15 04:59:56;;;;;;;7.05;4.45;;;;;;;;;;4992926;28;20692;-85
2021/06/15 05:02:23;;;;;;;6.50;4.57;;;;;;;;;;4989543;28;20122;-87
2021/06/15 05:04:51;;;;;;;5.85;4.68;;;;;;;;;;4992079;28;20057;-85
2021/06/15 05:07:19;;;;;;;9.82;4.70;;;;;;;;;;4989402;28;20051;-85
2021/06/15 05:09:50;;;;;;;6.57;4.53;;;;;;;;;;4980495;28;20105;-84
2021/06/15 05:12:19;;;;;;;7.13;5.00;;;;;;;;;;4991626;28;20050;-84
2021/06/15 05:14:46;;;;;;;8.07;4.82;;;;;;;;;;4991663;28;20047;-83
2021/06/15 05:17:13;;;;;;;9.38;4.70;;;;;;;;;;4990624;28;20050;-85
2021/06/15 05:19:40;;;;;;;7.60;4.28;;;;;;;;;;4991263;28;20050;-83
2021/06/15 05:22:11;;;;;;;9.30;4.57;;;;;;;;;;5000477;28;20046;-83
2021/06/15 05:24:49;;;;;;;6.18;4.60;;;;;;;;;;4987721;28;20130;-85
2021/06/15 05:27:18;;;;;;;8.30;5.20;;;;;;;;;;4986046;28;20074;-82
2021/06/15 05:29:44;;;;;;;12.10;5.25;;;;;;;;;;4988598;28;20050;-82
2021/06/15 05:32:11;;;;;;;8.80;4.53;;;;;;;;;;5000119;28;20495;-85
2021/06/15 05:34:38;;;;;;;9.02;5.15;;;;;;;;;;4999951;28;20057;-82
2021/06/15 05:37:06;;;;;;;8.02;5.25;;;;;;;;;;5000887;28;20105;-86
2021/06/15 05:39:35;;;;;;;8.93;4.80;;;;;;;;;;4999516;28;20047;-83
2021/06/15 05:42:01;;;;;;;11.35;5.47;;;;;;;;;;4999110;28;20201;-83
2021/06/15 05:44:28;;;;;;;5.90;4.60;;;;;;;;;;4996342;28;20495;-84
2021/06/15 05:46:54;;;;;;;5.50;4.88;;;;;;;;;;4992598;28;20077;-82
2021/06/15 05:49:21;;;;;;;14.20;5.43;;;;;;;;;;4998060;28;20645;-83
2021/06/15 05:51:48;;;;;;;8.27;4.97;;;;;;;;;;5005384;28;20068;-84
2021/06/15 05:54:15;;;;;;;6.53;4.72;;;;;;;;;;5009339;28;20050;-84
2021/06/15 05:56:42;;;;;;;7.30;4.93;;;;;;;;;;4998828;28;20141;-86
2021/06/15 05:59:09;;;;;;;7.60;5.55;;;;;;;;;;4996613;28;20069;-84
2021/06/15 06:01:36;;;;;;;11.45;5.20;;;;;;;;;;5000023;28;20046;-83
2021/06/15 06:04:04;;;;;;;12.25;6.57;;;;;;;;;;4996173;28;20513;-84
2021/06/15 06:09:15;;;;;;;7.68;5.05;;;;;;;;;;4987233;28;20057;-84
2021/06/15 06:11:43;;;;;;;11.05;6.30;;;;;;;;;;5006801;28;20081;-82
2021/06/15 06:14:10;;;;;;;9.82;6.63;;;;;;;;;;4997322;28;20379;-86
2021/06/15 06:16:37;;;;;;;13.10;7.03;;;;;;;;;;5003211;28;20066;-83
2021/06/15 06:19:05;;;;;;;16.98;7.65;;;;;;;;;;4982145;28;20562;-82
2021/06/15 06:21:32;;;;;;;12.18;7.43;;;;;;;;;;4999950;28;20054;-82
2021/06/15 06:23:59;;;;;;;14.52;7.45;;;;;;;;;;4991177;28;20085;-83
2021/06/15 06:26:25;;;;;;;8.45;6.60;;;;;;;;;;4991475;28;20495;-82
2021/06/15 06:28:53;;;;;;;10.73;6.32;;;;;;;;;;4990219;28;20049;-84
2021/06/15 06:31:20;;;;;;;14.18;6.88;;;;;;;;;;4994501;28;20053;-83
2021/06/15 06:33:47;;;;;;;7.88;6.53;;;;;;;;;;4990933;28;20053;-83
2021/06/15 06:36:14;;;;;;;7.95;6.30;;;;;;;;;;4980546;28;20431;-84
2021/06/15 06:38:41;;;;;;;10.13;6.03;;;;;;;;;;4983967;28;20049;-83
2021/06/15 06:41:08;;;;;;;9.93;5.85;;;;;;;;;;4986068;28;20039;-83
2021/06/15 06:43:36;;;;;;;7.53;5.38;;;;;;;;;;4989075;28;20523;-86
2021/06/15 06:46:04;;;;;;;8.20;5.60;;;;;;;;;;4996538;28;20461;-83
2021/06/15 06:48:30;;;;;;;9.65;5.40;;;;;;;;;;4993876;28;20347;-83
2021/06/15 06:50:57;;;;;;;11.50;5.43;;;;;;;;;;4967095;28;20051;-83
2021/06/15 06:53:23;;;;;;;7.32;4.93;;;;;;;;;;4983100;28;20046;-83
2021/06/15 06:55:50;;;;;;;7.55;5.10;;;;;;;;;;4993771;28;20039;-83
2021/06/15 06:58:16;;;;;;;8.10;4.90;;;;;;;;;;4986934;28;20047;-83
2021/06/15 07:00:43;;;;;;;11.63;5.07;;;;;;;;;;4966831;28;20415;-83
2021/06/15 07:03:10;;;;;;;6.47;4.95;;;;;;;;;;4988056;28;20046;-82
2021/06/15 07:05:37;;;;;;;5.60;4.25;;;;;;;;;;4998512;28;20042;-85
2021/06/15 07:08:04;;;;;;;8.20;4.05;;;;;;;;;;4994310;28;20145;-85
2021/06/15 07:10:31;;;;;;;6.07;4.03;;;;;;;;;;4992163;28;20046;-85
2021/06/15 07:12:58;;;;;;;10.20;3.88;;;;;;;;;;5003236;28;20046;-84
2021/06/15 07:15:24;;;;;;;7.35;3.83;;;;;;;;;;4989555;28;20130;-84
2021/06/15 07:17:51;;;;;;;5.78;3.88;;;;;;;;;;4996329;28;20050;-82
2021/06/15 07:20:18;;;;;;;7.50;3.80;;;;;;;;;;4996567;28;20046;-85
2021/06/15 07:22:45;;;;;;;6.18;3.80;;;;;;;;;;4988310;28;20446;-83
2021/06/15 07:25:13;;;;;;;8.63;3.95;;;;;;;;;;4997939;28;20042;-83
2021/06/15 07:27:39;;;;;;;8.18;3.50;;;;;;;;;;4986545;28;20050;-85
2021/06/15 07:30:07;;;;;;;6.85;3.42;;;;;;;;;;4995101;28;20038;-83
2021/06/15 07:32:34;;;;;;;8.68;3.17;;;;;;;;;;5000897;28;20046;-84
2021/06/15 07:35:00;;;;;;;5.70;4.03;;;;;;;;;;5005997;28;20046;-84
2021/06/15 07:37:28;;;;;;;8.75;3.97;;;;;;;;;;4994540;28;20038;-85
2021/06/15 07:39:54;;;;;;;7.88;4.05;;;;;;;;;;4989867;28;20067;-83
2021/06/15 07:42:22;;;;;;;7.05;3.67;;;;;;;;;;4990085;28;20706;-84
2021/06/15 07:44:48;;;;;;;7.78;3.75;;;;;;;;;;4998043;28;20046;-83
2021/06/15 07:47:15;;;;;;;13.80;3.95;;;;;;;;;;4998588;28;20042;-85
2021/06/15 07:49:42;;;;;;;14.00;3.55;;;;;;;;;;4994231;28;20395;-83
2021/06/15 07:52:08;;;;;;;11.35;3.47;;;;;;;;;;4993791;28;20051;-85
2021/06/15 07:54:36;;;;;;;8.30;3.22;;;;;;;;;;4992521;28;20057;-85
2021/06/15 07:57:04;;;;;;;7.13;3.55;;;;;;;;;;4971387;28;20491;-84
2021/06/15 07:59:30;;;;;;;9.07;3.25;;;;;;;;;;4991017;28;20043;-86
2021/06/15 08:01:57;;;;;;;6.95;3.05;;;;;;;;;;4994433;28;20044;-84
2021/06/15 08:04:24;;;;;;;10.30;3.00;;;;;;;;;;4993048;28;20057;-83
2021/06/15 08:06:50;;;;;;;7.88;2.67;;;;;;;;;;4993107;28;20051;-85
2021/06/15 08:09:17;;;;;;;8.75;3.10;;;;;;;;;;4972086;28;20073;-82
2021/06/15 08:11:45;;;;;;;6.40;2.60;;;;;;;;;;4971487;28;20061;-85
2021/06/15 08:14:12;;;;;;;6.97;2.50;;;;;;;;;;5004888;28;20056;-83
2021/06/15 08:16:38;;;;;;;5.50;2.13;;;;;;;;;;5000624;28;20050;-86
2021/06/15 08:19:05;;;;;;;6.72;2.58;;;;;;;;;;5000878;28;20046;-83
2021/06/15 08:21:32;;;;;;;5.47;2.60;;;;;;;;;;5001291;28;20074;-83
2021/06/15 08:23:58;;;;;;;4.28;2.40;;;;;;;;;;5000451;28;20141;-83
2021/06/15 08:26:25;;;;;;;4.75;2.42;;;;;;;;;;5001855;28;20054;-83
2021/06/15 08:28:53;;;;;;;6.22;2.40;;;;;;;;;;5000881;28;20057;-83
2021/06/15 08:31:19;;;;;;;5.72;2.80;;;;;;;;;;5000577;28;20058;-81
2021/06/15 08:33:46;;;;;;;5.15;2.92;;;;;;;;;;5001036;28;20575;-83
2021/06/15 08:36:12;;;;;;;7.85;3.65;;;;;;;;;;5001410;28;20559;-82
2021/06/15 08:38:38;;;;;;;7.70;3.65;;;;;;;;;;5001998;28;20053;-84
2021/06/15 08:41:05;;;;;;;8.77;3.90;;;;;;;;;;5000994;28;20058;-83
2021/06/15 08:43:31;;;;;;;6.45;3.75;;;;;;;;;;5001547;28;20124;-82
2021/06/15 08:46:00;;;;;;;8.77;3.45;;;;;;;;;;5001674;28;20042;-84
2021/06/15 08:48:26;;;;;;;6.82;3.67;;;;;;;;;;4999263;28;20442;-83
2021/06/15 08:50:53;;;;;;;6.65;3.22;;;;;;;;;;5000499;28;20510;-83
2021/06/15 08:53:20;;;;;;;6.60;3.90;;;;;;;;;;5000975;28;20057;-83
2021/06/15 08:55:49;;;;;;;6.50;3.33;;;;;;;;;;5000540;28;20082;-82
2021/06/15 08:58:23;;;;;;;6.15;2.95;;;;;;;;;;4999065;28;20058;-81
2021/06/15 09:00:50;;;;;;;4.68;3.03;;;;;;;;;;5001271;28;20054;-81
2021/06/15 09:03:18;;;;;;;7.47;2.78;;;;;;;;;;5001059;28;20498;-80
2021/06/15 09:05:44;;;;;;;6.57;3.00;;;;;;;;;;5002575;28;20398;-80
2021/06/15 09:08:12;;;;;;;6.22;2.80;;;;;;;;;;5002887;28;20051;-83
2021/06/15 09:10:40;;;;;;;7.40;3.22;;;;;;;;;;5000992;28;20050;-83
2021/06/15 09:13:08;;;;;;;6.78;2.92;;;;;;;;;;5001259;28;20214;-82
2021/06/15 09:15:35;;;;;;;6.38;2.92;;;;;;;;;;5000917;28;20061;-81
2021/06/15 09:18:01;;;;;;;5.10;2.35;;;;;;;;;;5000309;28;20050;-82
2021/06/15 09:20:31;;;;;;;7.65;2.42;;;;;;;;;;5001520;28;20049;-80
2021/06/15 09:23:00;;;;;;;5.43;2.63;;;;;;;;;;5000002;28;20047;-81
2021/06/15 09:25:27;;;;;;;6.30;2.30;;;;;;;;;;5000579;28;20084;-82
2021/06/15 09:27:54;;;;;;;7.32;2.55;;;;;;;;;;5000970;28;20466;-82
2021/06/15 09:30:24;;;;;;;11.35;2.55;;;;;;;;;;5002931;28;20050;-81
2021/06/15 09:32:53;;;;;;;3.83;2.22;;;;;;;;;;4999515;28;20053;-83
2021/06/15 09:35:21;;;;;;;5.13;2.53;;;;;;;;;;5000373;28;20054;-83
2021/06/15 09:37:50;;;;;;;4.60;2.65;;;;;;;;;;4999892;28;20042;-84
2021/06/15 09:40:19;;;;;;;4.22;2.38;;;;;;;;;;4986797;28;20048;-82
2021/06/15 09:42:55;;;;;;;8.40;2.72;;;;;;;;;;4986987;28;20047;-82
2021/06/15 09:45:22;;;;;;;6.65;2.45;;;;;;;;;;4995500;28;20134;-82
2021/06/15 09:47:49;;;;;;;6.47;2.65;;;;;;;;;;4993905;28;20463;-83
2021/06/15 09:50:16;;;;;;;4.20;2.40;;;;;;;;;;4988981;28;20078;-82
2021/06/15 09:52:43;;;;;;;5.43;2.50;;;;;;;;;;4995192;28;20050;-82
2021/06/15 09:55:12;;;;;;;6.50;2.17;;;;;;;;;;4996109;28;20053;-82
2021/06/15 09:57:41;;;;;;;7.53;2.33;;;;;;;;;;4986595;28;20047;-82
2021/06/15 10:00:13;;;;;;;4.20;2.30;;;;;;;;;;4987479;28;20106;-82
2021/06/15 10:02:50;;;;;;;5.25;2.10;;;;;;;;;;4986347;28;20046;-82
2021/06/15 10:05:28;;;;;;;5.88;2.20;;;;;;;;;;4991958;28;20078;-82
2021/06/15 10:07:57;;;;;;;4.63;2.50;;;;;;;;;;4983902;28;20082;-85
2021/06/15 10:10:29;;;;;;;4.50;2.28;;;;;;;;;;4969895;28;20062;-82
2021/06/15 10:12:56;;;;;;;11.05;3.03;;;;;;;;;;4980969;28;20073;-84
2021/06/15 10:15:23;;;;;;;3.85;1.75;;;;;;;;;;4972611;28;20341;-83
2021/06/15 10:17:49;;;;;;;5.22;2.20;;;;;;;;;;4966419;28;20073;-81
2021/06/15 10:20:18;;;;;;;8.45;2.55;;;;;;;;;;4968715;28;20496;-81
2021/06/15 10:22:46;;;;;;;6.95;2.75;;;;;;;;;;4967191;28;20047;-82
2021/06/15 10:25:14;;;;;;;6.10;2.55;;;;;;;;;;4971478;28;20078;-82
2021/06/15 10:27:42;;;;;;;5.13;2.47;;;;;;;;;;4968337;28;20047;-82
2021/06/15 10:30:12;;;;;;;3.35;2.22;;;;;;;;;;4977434;28;20058;-82
2021/06/15 10:32:51;;;;;;;8.70;2.47;;;;;;;;;;4977325;28;20419;-84
2021/06/15 10:35:36;;;;;;;4.05;2.83;;;;;;;;;;4970998;28;20126;-85
2021/06/15 10:38:03;;;;;;;;;;;;;;;;;;4976012;28;20042;-83
2021/06/15 10:40:55;;;;;;;5.32;2.22;;;;;;;;;;4978861;28;19949;-84
2021/06/15 10:43:28;;;;;;;3.30;1.90;;;;;;;;;;4962856;29;20059;-83
2021/06/15 10:45:58;;;;;;;7.70;1.90;;;;;;;;;;4962842;28;20556;-83
2021/06/15 10:48:46;;;;;;;4.78;1.85;;;;;;;;;;4962625;28;20050;-85
2021/06/15 10:51:25;;;;;;;5.43;2.17;;;;;;;;;;4974243;28;20039;-84
2021/06/15 10:53:52;;;;;;;14.00;3.30;;;;;;;;;;4974050;28;20051;-84
2021/06/15 10:56:20;;;;;;;5.00;1.95;;;;;;;;;;4972377;28;20058;-83
2021/06/15 10:59:09;;;;;;;9.85;2.33;;;;;;;;;;4970185;28;20106;-83
2021/06/15 11:01:41;;;;;;;5.57;2.35;;;;;;;;;;4968801;28;20110;-84
2021/06/15 11:04:09;;;;;;;7.82;2.40;;;;;;;;;;4970572;28;20062;-84
2021/06/15 11:06:46;;;;;;;4.47;2.65;;;;;;;;;;4967013;28;20128;-83
2021/06/15 11:09:25;;;;;;;4.05;1.95;;;;;;;;;;4979581;28;20224;-80
2021/06/15 11:12:20;;;;;;;4.85;1.90;;;;;;;;;;4968396;28;20046;-81
2021/06/15 11:15:11;;;;;;;3.50;1.98;;;;;;;;;;4971166;28;20054;-81
2021/06/15 11:17:45;;;;;;;5.22;1.67;;;;;;;;;;4971102;28;20063;-85
2021/06/15 11:20:12;;;;;;;3.28;1.60;;;;;;;;;;4974006;28;20043;-84
2021/06/15 11:22:39;;;;;;;4.55;2.22;;;;;;;;;;4959956;28;20047;-83
2021/06/15 11:25:07;;;;;;;3.95;2.15;;;;;;;;;;4960873;28;20070;-84
2021/06/15 11:27:36;;;;;;;25.45;4.05;;;;;;;;;;4960589;28;20070;-83
2021/06/15 11:30:23;;;;;;;4.15;2.25;;;;;;;;;;4960965;28;20047;-82
2021/06/15 11:32:57;;;;;;;3.33;1.83;;;;;;;;;;4961747;29;20043;-83
2021/06/15 11:35:24;;;;;;;4.95;2.15;;;;;;;;;;4960094;29;20432;-83
2021/06/15 11:37:52;;;;;;;4.20;2.45;;;;;;;;;;4960414;28;20051;-82
2021/06/15 11:40:26;;;;;;;2.90;1.90;;;;;;;;;;4961704;29;20051;-82
2021/06/15 11:42:54;;;;;;;3.92;2.08;;;;;;;;;;4965409;28;20427;-83
2021/06/15 11:45:42;;;;;;;4.78;1.55;;;;;;;;;;4993847;28;20118;-83
2021/06/15 11:48:30;;;;;;;4.25;2.70;;;;;;;;;;4991181;28;20109;-84
2021/06/15 11:50:56;;;;;;;6.57;2.50;;;;;;;;;;4989240;28;20503;-83
2021/06/15 11:53:24;;;;;;;4.05;2.42;;;;;;;;;;4991213;28;20043;-82
2021/06/15 11:55:53;;;;;;;5.10;2.30;;;;;;;;;;4988948;28;20058;-84
2021/06/15 11:58:21;;;;;;;3.63;1.88;;;;;;;;;;4986279;28;20046;-82
2021/06/15 12:00:50;;;;;;;5.82;2.20;;;;;;;;;;4985665;28;20043;-83
2021/06/15 12:03:18;;;;;;;6.25;1.98;;;;;;;;;;4974106;28;20061;-83
2021/06/15 12:05:46;;;;;;;3.83;2.20;;;;;;;;;;4967966;29;20066;-83
2021/06/15 12:08:12;;;;;;;3.63;2.38;;;;;;;;;;4986927;28;20057;-82
2021/06/15 12:10:40;;;;;;;3.50;2.00;;;;;;;;;;4975615;28;20054;-83
2021/06/15 12:13:12;;;;;;;5.25;1.70;;;;;;;;;;4973590;29;20051;-82
2021/06/15 12:16:00;;;;;;;2.88;1.95;;;;;;;;;;4987755;28;20074;-82
2021/06/15 12:18:44;;;;;;;3.80;1.90;;;;;;;;;;4986826;28;20122;-82
2021/06/15 12:21:14;;;;;;;4.32;1.92;;;;;;;;;;4976889;28;20043;-84
2021/06/15 12:23:43;;;;;;;6.30;2.15;;;;;;;;;;4966074;28;20560;-83
2021/06/15 12:26:25;;;;;;;5.25;2.08;;;;;;;;;;4973448;28;20043;-81
2021/06/15 12:28:53;;;;;;;4.55;2.28;;;;;;;;;;4972811;28;20059;-84
2021/06/15 12:31:24;;;;;;;3.80;1.85;;;;;;;;;;4966200;29;20389;-82
2021/06/15 12:33:53;;;;;;;3.40;1.92;;;;;;;;;;4981906;28;20050;-82
2021/06/15 12:36:22;;;;;;;3.15;1.90;;;;;;;;;;4984321;28;20042;-83
2021/06/15 12:38:49;;;;;;;2.88;1.90;;;;;;;;;;4984665;28;20137;-84
2021/06/15 12:41:18;;;;;;;3.50;1.85;;;;;;;;;;4985143;28;20403;-83
2021/06/15 12:43:45;;;;;;;4.60;2.00;;;;;;;;;;4983152;28;20054;-82
2021/06/15 12:46:20;;;;;;;5.05;2.15;;;;;;;;;;4985492;28;20536;-83
2021/06/15 12:48:51;;;;;;;3.53;1.60;;;;;;;;;;4983466;28;20057;-82
2021/06/15 12:51:20;;;;;;;2.55;1.58;;;;;;;;;;4984432;28;20078;-83
2021/06/15 12:53:47;;;;;;;3.75;1.95;;;;;;;;;;4983318;28;20118;-82
2021/06/15 12:56:16;;;;;;;3.50;1.77;;;;;;;;;;4984844;28;20051;-81
2021/06/15 12:58:44;;;;;;;4.03;1.50;;;;;;;;;;4984535;28;20051;-82
2021/06/15 13:01:18;;;;;;;6.45;1.77;;;;;;;;;;4985084;28;20050;-82
2021/06/15 13:03:48;;;;;;;;;;;;;;;;;;4985403;28;20074;-83
2021/06/15 13:06:16;;;;;;;6.68;2.28;;;;;;;;;;4986023;28;19929;-82
2021/06/15 13:08:43;;;;;;;3.67;1.80;;;;;;;;;;4984747;28;20053;-83
2021/06/15 13:11:12;;;;;;;4.05;1.95;;;;;;;;;;4984808;28;20114;-82
2021/06/15 13:13:52;;;;;;;5.65;2.17;;;;;;;;;;4985703;28;20046;-82
2021/06/15 13:16:19;;;;;;;4.70;1.90;;;;;;;;;;4986892;28;20061;-83
2021/06/15 13:18:58;;;;;;;5.82;1.90;;;;;;;;;;4986057;28;20051;-83
2021/06/15 13:21:42;;;;;;;3.60;1.75;;;;;;;;;;4987627;28;20051;-83
2021/06/15 13:24:09;;;;;;;3.38;1.95;;;;;;;;;;4983304;28;20047;-84
2021/06/15 13:26:36;;;;;;;4.35;2.05;;;;;;;;;;4984744;28;20057;-84
2021/06/15 13:29:03;;;;;;;4.10;1.85;;;;;;;;;;4984120;28;20047;-83
2021/06/15 13:31:29;;;;;;;4.20;2.17;;;;;;;;;;4985020;28;20055;-83
2021/06/15 13:34:04;;;;;;;9.02;2.22;;;;;;;;;;4985483;28;20054;-83
2021/06/15 13:36:32;;;;;;;5.93;2.15;;;;;;;;;;4983693;28;20050;-84
2021/06/15 13:39:14;;;;;;;5.00;2.08;;;;;;;;;;4980128;28;20046;-83
2021/06/15 13:41:41;;;;;;;12.55;2.65;;;;;;;;;;4957359;28;20074;-83
2021/06/15 13:44:08;;;;;;;6.93;2.30;;;;;;;;;;4981991;28;20147;-83
2021/06/15 13:46:36;;;;;;;6.93;2.40;;;;;;;;;;4974627;28;20099;-84
2021/06/15 13:49:05;;;;;;;3.42;1.77;;;;;;;;;;4982396;28;20050;-83
2021/06/15 13:51:33;;;;;;;3.88;1.83;;;;;;;;;;4981772;28;20046;-84
2021/06/15 13:54:01;;;;;;;3.92;1.88;;;;;;;;;;4975140;28;20051;-84
2021/06/15 13:56:29;;;;;;;4.35;1.92;;;;;;;;;;4981493;28;20047;-83
2021/06/15 13:58:57;;;;;;;10.05;2.42;;;;;;;;;;4981961;28;20051;-84
2021/06/15 14:01:24;;;;;;;6.35;2.38;;;;;;;;;;4981830;28;20133;-84
2021/06/15 14:03:50;;;;;;;2.70;1.52;;;;;;;;;;4982725;28;20055;-84
2021/06/15 14:06:17;;;;;;;5.15;1.98;;;;;;;;;;4983682;28;20055;-84
2021/06/15 14:08:45;;;;;;;4.05;1.60;;;;;;;;;;4982313;28;20047;-84
2021/06/15 14:11:12;;;;;;;4.72;1.92;;;;;;;;;;4982653;28;20055;-84
2021/06/15 14:13:39;;;;;;;8.23;1.70;;;;;;;;;;4981240;28;20070;-84
2021/06/15 14:16:06;;;;;;;11.40;2.05;;;;;;;;;;4981815;28;20134;-84
2021/06/15 14:18:32;;;;;;;39.83;4.00;;;;;;;;;;4981321;28;20527;-84
2021/06/15 14:20:59;;;;;;;5.45;1.90;;;;;;;;;;4981582;28;20047;-84
2021/06/15 14:23:25;;;;;;;5.63;1.77;;;;;;;;;;4982223;28;20051;-84
2021/06/15 14:25:53;;;;;;;6.72;2.00;;;;;;;;;;4980565;28;20047;-84
2021/06/15 14:28:20;;;;;;;8.77;1.90;;;;;;;;;;4980514;28;20133;-85
2021/06/15 14:30:47;;;;;;;6.93;1.80;;;;;;;;;;4982211;28;20522;-85
2021/06/15 14:33:14;;;;;;;3.38;1.80;;;;;;;;;;4978484;28;20070;-84
2021/06/15 14:35:42;;;;;;;2.55;1.70;;;;;;;;;;4982289;28;20051;-84
2021/06/15 14:38:09;;;;;;;4.82;1.60;;;;;;;;;;4982577;28;20079;-84
2021/06/15 14:40:36;;;;;;;4.47;1.83;;;;;;;;;;4982139;28;20050;-84
2021/06/15 14:43:04;;;;;;;6.32;1.88;;;;;;;;;;4982490;28;20054;-84
2021/06/15 14:45:30;;;;;;;2.72;1.50;;;;;;;;;;4981037;28;20055;-85
2021/06/15 14:47:57;;;;;;;2.45;1.65;;;;;;;;;;4981404;28;20054;-85
2021/06/15 14:50:23;;;;;;;2.03;1.42;;;;;;;;;;4978475;28;20051;-85
2021/06/15 14:52:50;;;;;;;3.20;1.60;;;;;;;;;;4977518;28;20061;-85
2021/06/15 14:55:17;;;;;;;3.47;1.58;;;;;;;;;;4973407;28;20057;-84
2021/06/15 14:57:45;;;;;;;3.38;1.45;;;;;;;;;;4979555;28;20054;-85